Time;durP1;ratioP1;P1;durP2;ratioP2;P2;SDS_P1;SDS_P2;PMS_P1;PMS_P2;Temp;Humidity;BMP_temperature;BMP_pressure;BME280_temperature;BME280_humidity;BME280_pressure;Samples;Min_cycle;Max_cycle;Signal;HPM_P1;HPM_P2
2024/01/13 00:00:20;;;;;;;7.70;1.75;;;;;;;;;;4967844;28;20109;-66
2024/01/13 00:02:47;;;;;;;11.02;1.58;;;;;;;;;;4968777;28;20105;-67
2024/01/13 00:05:14;;;;;;;9.27;1.88;;;;;;;;;;4967313;28;20532;-65
2024/01/13 00:07:41;;;;;;;11.02;1.48;;;;;;;;;;4962651;28;20062;-69
2024/01/13 00:10:09;;;;;;;5.85;1.38;;;;;;;;;;4963377;28;20063;-66
2024/01/13 00:12:37;;;;;;;10.38;1.60;;;;;;;;;;4967009;28;20054;-66
2024/01/13 00:15:05;;;;;;;6.35;1.52;;;;;;;;;;4969012;28;20406;-66
2024/01/13 00:17:32;;;;;;;7.20;1.00;;;;;;;;;;4967870;28;20406;-66
2024/01/13 00:20:00;;;;;;;13.32;1.30;;;;;;;;;;4966597;28;20078;-65
2024/01/13 00:22:27;;;;;;;8.65;0.82;;;;;;;;;;4965955;28;20054;-67
2024/01/13 00:24:54;;;;;;;4.63;0.73;;;;;;;;;;4967682;28;20062;-67
2024/01/13 00:27:21;;;;;;;3.03;0.70;;;;;;;;;;4968809;28;20091;-65
2024/01/13 00:29:50;;;;;;;5.68;0.93;;;;;;;;;;4966527;28;20295;-66
2024/01/13 00:32:17;;;;;;;7.85;0.70;;;;;;;;;;4969799;28;20155;-66
2024/01/13 00:34:45;;;;;;;7.20;0.80;;;;;;;;;;4966678;28;20058;-66
2024/01/13 00:37:12;;;;;;;7.65;0.90;;;;;;;;;;4967798;28;20050;-67
2024/01/13 00:39:39;;;;;;;8.13;0.60;;;;;;;;;;4967084;28;20062;-65
2024/01/13 00:42:07;;;;;;;5.75;0.70;;;;;;;;;;4966910;28;20533;-66
2024/01/13 00:44:34;;;;;;;3.97;0.80;;;;;;;;;;4969323;28;20047;-65
2024/01/13 00:47:02;;;;;;;10.07;1.10;;;;;;;;;;4964629;28;20073;-67
2024/01/13 00:49:30;;;;;;;6.10;0.85;;;;;;;;;;4973911;28;20535;-67
2024/01/13 00:51:57;;;;;;;6.13;1.00;;;;;;;;;;4967309;28;20050;-66
2024/01/13 00:54:24;;;;;;;6.75;0.82;;;;;;;;;;4971986;28;20039;-67
2024/01/13 00:56:53;;;;;;;4.28;0.70;;;;;;;;;;4969615;28;20419;-66
2024/01/13 00:59:20;;;;;;;4.07;0.70;;;;;;;;;;4973140;28;20453;-66
2024/01/13 01:01:48;;;;;;;12.40;0.70;;;;;;;;;;4965757;28;20046;-66
2024/01/13 01:04:16;;;;;;;4.05;0.80;;;;;;;;;;4972206;28;20052;-66
2024/01/13 01:06:43;;;;;;;6.68;0.90;;;;;;;;;;4949382;28;20057;-67
2024/01/13 01:09:11;;;;;;;6.28;1.70;;;;;;;;;;4964902;28;20055;-67
2024/01/13 01:11:38;;;;;;;10.05;2.25;;;;;;;;;;4965018;28;20046;-66
2024/01/13 01:14:05;;;;;;;11.52;1.00;;;;;;;;;;4970728;28;20504;-66
2024/01/13 01:16:32;;;;;;;7.43;1.00;;;;;;;;;;4949944;28;20050;-66
2024/01/13 01:19:00;;;;;;;8.30;1.10;;;;;;;;;;4953365;28;20558;-67
2024/01/13 01:21:28;;;;;;;7.78;0.80;;;;;;;;;;4967209;28;20983;-65
2024/01/13 01:23:55;;;;;;;4.38;0.80;;;;;;;;;;4968952;28;20070;-66
2024/01/13 01:26:23;;;;;;;7.32;1.52;;;;;;;;;;4968046;28;20058;-66
2024/01/13 01:28:50;;;;;;;6.65;1.10;;;;;;;;;;4968113;28;20521;-65
2024/01/13 01:31:17;;;;;;;9.20;0.80;;;;;;;;;;4967601;28;20156;-66
2024/01/13 01:33:45;;;;;;;5.82;1.25;;;;;;;;;;4968701;28;20042;-66
2024/01/13 01:36:12;;;;;;;6.43;1.20;;;;;;;;;;4971991;28;20050;-66
2024/01/13 01:38:41;;;;;;;8.45;1.20;;;;;;;;;;4965321;28;20051;-66
2024/01/13 01:41:09;;;;;;;3.97;0.73;;;;;;;;;;4953215;28;20058;-65
2024/01/13 01:43:36;;;;;;;4.88;0.70;;;;;;;;;;4972419;28;20482;-66
2024/01/13 01:46:05;;;;;;;7.35;0.70;;;;;;;;;;4971115;28;20054;-66
2024/01/13 01:48:36;;;;;;;3.92;0.50;;;;;;;;;;4958036;28;20066;-68
2024/01/13 01:51:03;;;;;;;3.15;0.52;;;;;;;;;;4964439;28;20063;-66
2024/01/13 01:53:31;;;;;;;1.88;0.45;;;;;;;;;;4970958;28;20475;-66
2024/01/13 01:56:01;;;;;;;7.50;0.30;;;;;;;;;;4971951;28;20057;-66
2024/01/13 01:58:28;;;;;;;3.70;0.47;;;;;;;;;;4971457;28;20042;-65
2024/01/13 02:00:56;;;;;;;5.18;0.32;;;;;;;;;;4971585;28;20133;-66
2024/01/13 02:03:23;;;;;;;5.95;0.55;;;;;;;;;;4969812;28;20074;-66
2024/01/13 02:05:50;;;;;;;5.65;0.63;;;;;;;;;;4966692;28;20069;-66
2024/01/13 02:08:18;;;;;;;2.83;0.40;;;;;;;;;;4971872;28;20104;-66
2024/01/13 02:10:45;;;;;;;5.15;0.40;;;;;;;;;;4970537;28;20047;-66
2024/01/13 02:13:14;;;;;;;4.80;0.45;;;;;;;;;;4970562;28;20065;-66
2024/01/13 02:15:41;;;;;;;2.65;0.60;;;;;;;;;;4970662;28;20055;-66
2024/01/13 02:18:08;;;;;;;1.52;0.50;;;;;;;;;;4968842;28;20563;-66
2024/01/13 02:20:35;;;;;;;6.07;0.40;;;;;;;;;;4968942;28;20050;-68
2024/01/13 02:23:04;;;;;;;3.83;0.35;;;;;;;;;;4971269;28;20973;-66
2024/01/13 02:25:31;;;;;;;3.50;0.47;;;;;;;;;;4970527;28;20513;-66
2024/01/13 02:27:59;;;;;;;3.65;0.40;;;;;;;;;;4971508;28;20065;-66
2024/01/13 02:30:26;;;;;;;4.43;0.50;;;;;;;;;;4970131;28;20384;-66
2024/01/13 02:32:54;;;;;;;5.20;0.52;;;;;;;;;;4966288;28;20070;-66
2024/01/13 02:35:21;;;;;;;2.25;0.50;;;;;;;;;;4971453;28;20058;-67
2024/01/13 02:37:48;;;;;;;1.75;0.45;;;;;;;;;;4969257;28;20517;-67
2024/01/13 02:40:17;;;;;;;2.83;0.60;;;;;;;;;;4971186;28;20054;-65
2024/01/13 02:42:44;;;;;;;5.97;1.20;;;;;;;;;;4970434;28;20051;-65
2024/01/13 02:45:11;;;;;;;9.90;1.20;;;;;;;;;;4969690;28;20062;-68
2024/01/13 02:47:42;;;;;;;6.72;1.00;;;;;;;;;;4969700;28;20063;-68
2024/01/13 02:50:09;;;;;;;6.13;1.10;;;;;;;;;;4970531;28;20050;-66
2024/01/13 02:52:36;;;;;;;5.70;1.10;;;;;;;;;;4968166;28;20058;-65
2024/01/13 02:55:04;;;;;;;6.72;1.60;;;;;;;;;;4971221;28;20065;-66
2024/01/13 02:57:32;;;;;;;15.15;1.27;;;;;;;;;;4967872;28;20501;-66
2024/01/13 03:00:00;;;;;;;7.80;1.15;;;;;;;;;;4969456;28;20507;-67
2024/01/13 03:02:27;;;;;;;14.35;2.00;;;;;;;;;;4971101;28;20042;-66
2024/01/13 03:04:54;;;;;;;9.13;1.38;;;;;;;;;;4970211;28;20497;-69
2024/01/13 03:07:21;;;;;;;9.35;1.50;;;;;;;;;;4968842;28;20129;-67
2024/01/13 03:09:49;;;;;;;8.40;1.58;;;;;;;;;;4969715;28;20054;-66
2024/01/13 03:12:16;;;;;;;10.63;1.40;;;;;;;;;;4970333;28;20537;-66
2024/01/13 03:14:45;;;;;;;3.47;1.17;;;;;;;;;;4970419;28;20054;-68
2024/01/13 03:17:12;;;;;;;11.75;1.10;;;;;;;;;;4968653;28;20530;-67
2024/01/13 03:19:39;;;;;;;4.18;1.17;;;;;;;;;;4970936;28;20043;-66
2024/01/13 03:22:06;;;;;;;10.15;1.27;;;;;;;;;;4969353;28;20049;-66
2024/01/13 03:24:33;;;;;;;2.28;0.80;;;;;;;;;;4971072;28;20070;-66
2024/01/13 03:27:01;;;;;;;8.50;1.27;;;;;;;;;;4969852;28;20085;-66
2024/01/13 03:29:28;;;;;;;2.92;0.98;;;;;;;;;;4968284;28;20509;-66
2024/01/13 03:31:56;;;;;;;6.00;1.10;;;;;;;;;;4966272;28;20070;-68
2024/01/13 03:34:24;;;;;;;6.65;1.13;;;;;;;;;;4965264;28;20070;-67
2024/01/13 03:36:51;;;;;;;5.45;0.88;;;;;;;;;;4969010;28;20050;-66
2024/01/13 03:39:18;;;;;;;3.30;1.05;;;;;;;;;;4970252;28;20054;-66
2024/01/13 03:41:45;;;;;;;5.15;0.80;;;;;;;;;;4969260;28;20051;-66
2024/01/13 03:44:13;;;;;;;5.50;0.70;;;;;;;;;;4967774;28;20067;-66
2024/01/13 03:46:40;;;;;;;2.35;0.70;;;;;;;;;;4968999;28;20086;-67
2024/01/13 03:49:08;;;;;;;3.58;0.55;;;;;;;;;;4967193;28;20077;-67
2024/01/13 03:51:36;;;;;;;3.70;0.60;;;;;;;;;;4964995;28;20525;-68
2024/01/13 03:54:03;;;;;;;2.42;0.80;;;;;;;;;;4964542;28;20055;-67
2024/01/13 03:56:30;;;;;;;5.68;0.70;;;;;;;;;;4969643;28;20062;-67
2024/01/13 03:58:57;;;;;;;3.03;0.90;;;;;;;;;;4969491;28;20473;-66
2024/01/13 04:01:25;;;;;;;8.75;1.42;;;;;;;;;;4969473;28;20053;-67
2024/01/13 04:03:52;;;;;;;3.05;0.70;;;;;;;;;;4969125;28;20521;-66
2024/01/13 04:06:22;;;;;;;1.83;0.50;;;;;;;;;;4967520;28;20445;-66
2024/01/13 04:08:49;;;;;;;2.85;0.40;;;;;;;;;;4968510;28;20046;-67
2024/01/13 04:11:16;;;;;;;1.23;0.32;;;;;;;;;;4969873;28;20549;-67
2024/01/13 04:13:43;;;;;;;11.25;1.02;;;;;;;;;;4968997;28;20043;-68
2024/01/13 04:16:11;;;;;;;7.55;0.90;;;;;;;;;;4969077;28;20062;-67
2024/01/13 04:18:38;;;;;;;1.77;0.40;;;;;;;;;;4970050;28;20486;-66
2024/01/13 04:21:06;;;;;;;9.48;0.80;;;;;;;;;;4968032;28;20086;-67
2024/01/13 04:23:35;;;;;;;6.32;0.52;;;;;;;;;;4968580;28;20054;-66
2024/01/13 04:26:03;;;;;;;2.38;0.40;;;;;;;;;;4966106;28;20062;-67
2024/01/13 04:28:30;;;;;;;3.35;0.50;;;;;;;;;;4966571;28;20062;-66
2024/01/13 04:30:57;;;;;;;3.88;0.80;;;;;;;;;;4969264;28;20050;-66
2024/01/13 04:33:24;;;;;;;2.88;0.50;;;;;;;;;;4963926;28;20130;-68
2024/01/13 04:35:52;;;;;;;4.90;0.60;;;;;;;;;;4955036;28;20051;-67
2024/01/13 04:38:19;;;;;;;2.63;0.70;;;;;;;;;;4968303;28;20054;-66
2024/01/13 04:40:49;;;;;;;2.53;0.40;;;;;;;;;;4968832;28;20129;-67
2024/01/13 04:43:16;;;;;;;3.80;0.40;;;;;;;;;;4964741;28;20486;-68
2024/01/13 04:45:44;;;;;;;4.93;0.50;;;;;;;;;;4967692;28;20093;-67
2024/01/13 04:48:14;;;;;;;3.30;0.30;;;;;;;;;;4964587;28;20063;-67
2024/01/13 04:50:41;;;;;;;2.90;1.10;;;;;;;;;;4968032;28;20134;-67
2024/01/13 04:53:08;;;;;;;6.00;0.40;;;;;;;;;;4969116;28;20066;-66
2024/01/13 04:55:35;;;;;;;2.28;0.50;;;;;;;;;;4968185;28;20047;-66
2024/01/13 04:58:04;;;;;;;2.63;0.50;;;;;;;;;;4967218;28;20070;-67
2024/01/13 05:00:33;;;;;;;3.25;0.47;;;;;;;;;;4965231;28;20491;-67
2024/01/13 05:03:01;;;;;;;8.10;0.70;;;;;;;;;;4964224;28;20050;-66
2024/01/13 05:05:28;;;;;;;2.30;0.60;;;;;;;;;;4964562;28;20086;-67
2024/01/13 05:07:55;;;;;;;4.43;0.60;;;;;;;;;;4964741;28;20049;-67
2024/01/13 05:10:23;;;;;;;3.95;0.30;;;;;;;;;;4967490;28;20047;-66
2024/01/13 05:12:50;;;;;;;3.28;0.30;;;;;;;;;;4966599;28;20050;-69
2024/01/13 05:15:19;;;;;;;2.13;0.30;;;;;;;;;;4970410;28;20053;-68
2024/01/13 05:17:46;;;;;;;4.78;0.32;;;;;;;;;;4972120;28;20054;-67
2024/01/13 05:20:14;;;;;;;5.90;0.50;;;;;;;;;;4970348;28;20066;-68
2024/01/13 05:22:41;;;;;;;2.25;0.50;;;;;;;;;;4964234;28;20058;-67
2024/01/13 05:25:09;;;;;;;1.85;0.70;;;;;;;;;;4968745;28;20412;-66
2024/01/13 05:27:36;;;;;;;3.17;0.68;;;;;;;;;;4971209;28;20132;-67
2024/01/13 05:30:04;;;;;;;2.13;0.45;;;;;;;;;;4970981;28;20069;-67
2024/01/13 05:32:33;;;;;;;2.47;0.32;;;;;;;;;;4970672;28;20113;-67
2024/01/13 05:35:00;;;;;;;5.13;0.68;;;;;;;;;;4972104;28;20043;-68
2024/01/13 05:37:27;;;;;;;8.75;0.70;;;;;;;;;;4970660;28;20055;-67
2024/01/13 05:39:55;;;;;;;7.93;0.60;;;;;;;;;;4970959;28;20057;-67
2024/01/13 05:42:22;;;;;;;4.63;0.60;;;;;;;;;;4966070;28;20051;-67
2024/01/13 05:44:49;;;;;;;4.70;0.70;;;;;;;;;;4974846;28;20043;-67
2024/01/13 05:47:16;;;;;;;3.65;0.50;;;;;;;;;;4968663;28;20066;-67
2024/01/13 05:49:45;;;;;;;5.40;0.35;;;;;;;;;;4971105;28;20414;-67
2024/01/13 05:52:12;;;;;;;3.42;0.55;;;;;;;;;;4971545;28;20051;-67
2024/01/13 05:54:40;;;;;;;2.33;0.20;;;;;;;;;;4971927;28;20081;-67
2024/01/13 05:57:07;;;;;;;2.67;0.25;;;;;;;;;;4969537;28;20058;-68
2024/01/13 05:59:34;;;;;;;4.45;0.30;;;;;;;;;;4972088;28;20047;-66
2024/01/13 06:02:01;;;;;;;1.05;0.10;;;;;;;;;;4969126;28;20057;-66
2024/01/13 06:04:29;;;;;;;4.18;0.20;;;;;;;;;;4971761;28;20430;-66
2024/01/13 06:06:57;;;;;;;7.28;1.00;;;;;;;;;;4970955;28;20093;-69
2024/01/13 06:09:25;;;;;;;2.28;0.20;;;;;;;;;;4971374;28;20051;-67
2024/01/13 06:11:52;;;;;;;1.30;0.30;;;;;;;;;;4969295;28;20055;-67
2024/01/13 06:14:19;;;;;;;3.83;0.50;;;;;;;;;;4970073;28;20494;-67
2024/01/13 06:16:47;;;;;;;4.47;0.30;;;;;;;;;;4968866;28;20061;-68
2024/01/13 06:19:14;;;;;;;7.93;0.50;;;;;;;;;;4969490;28;20058;-65
2024/01/13 06:21:45;;;;;;;9.35;0.35;;;;;;;;;;4967860;28;20051;-66
2024/01/13 06:24:13;;;;;;;5.03;0.40;;;;;;;;;;4968496;28;20118;-67
2024/01/13 06:26:41;;;;;;;7.95;0.70;;;;;;;;;;4970488;28;20042;-67
2024/01/13 06:29:09;;;;;;;3.65;0.45;;;;;;;;;;4969814;28;20054;-67
2024/01/13 06:31:36;;;;;;;10.35;2.08;;;;;;;;;;4970603;28;20482;-67
2024/01/13 06:34:04;;;;;;;5.95;1.80;;;;;;;;;;4970298;28;20093;-66
2024/01/13 06:36:31;;;;;;;6.75;2.17;;;;;;;;;;4968940;28;20043;-67
2024/01/13 06:38:58;;;;;;;14.43;4.05;;;;;;;;;;4969220;28;20054;-67
2024/01/13 06:41:27;;;;;;;17.95;7.30;;;;;;;;;;4968442;28;20486;-68
2024/01/13 06:43:54;;;;;;;26.73;10.75;;;;;;;;;;4964715;28;20499;-67
2024/01/13 06:46:21;;;;;;;34.08;13.57;;;;;;;;;;4972106;28;20059;-66
2024/01/13 06:48:49;;;;;;;42.75;17.48;;;;;;;;;;4971092;28;20114;-69
2024/01/13 06:51:16;;;;;;;44.20;19.13;;;;;;;;;;4969927;28;20059;-68
2024/01/13 06:53:43;;;;;;;45.45;20.20;;;;;;;;;;4967940;28;20058;-67
2024/01/13 06:56:11;;;;;;;51.63;19.25;;;;;;;;;;4968357;28;20051;-67
2024/01/13 06:58:39;;;;;;;44.47;20.85;;;;;;;;;;4969776;28;20043;-67
2024/01/13 07:01:06;;;;;;;43.00;21.15;;;;;;;;;;4969054;28;20054;-68
2024/01/13 07:03:34;;;;;;;44.25;21.25;;;;;;;;;;4970072;28;20065;-68
2024/01/13 07:06:01;;;;;;;50.40;22.20;;;;;;;;;;4969291;28;20043;-66
2024/01/13 07:08:28;;;;;;;44.65;19.70;;;;;;;;;;4968141;28;20648;-68
2024/01/13 07:10:56;;;;;;;46.13;21.10;;;;;;;;;;4963434;28;20054;-66
2024/01/13 07:13:23;;;;;;;47.13;21.73;;;;;;;;;;4964775;28;20083;-66
2024/01/13 07:15:53;;;;;;;47.67;20.38;;;;;;;;;;4969156;28;20038;-67
2024/01/13 07:18:20;;;;;;;46.05;21.38;;;;;;;;;;4967918;28;20136;-65
2024/01/13 07:20:48;;;;;;;46.10;20.60;;;;;;;;;;4969331;28;20062;-66
2024/01/13 07:23:15;;;;;;;43.80;21.25;;;;;;;;;;4969552;28;20566;-67
2024/01/13 07:25:42;;;;;;;44.92;20.05;;;;;;;;;;4970589;28;20049;-67
2024/01/13 07:28:09;;;;;;;48.05;20.95;;;;;;;;;;4969892;28;20097;-65
2024/01/13 07:30:37;;;;;;;50.03;22.30;;;;;;;;;;4970224;28;20059;-68
2024/01/13 07:33:05;;;;;;;47.33;20.38;;;;;;;;;;4965988;28;20062;-65
2024/01/13 07:35:33;;;;;;;50.28;22.88;;;;;;;;;;4969674;28;20069;-69
2024/01/13 07:38:00;;;;;;;46.05;21.77;;;;;;;;;;4966845;28;20054;-66
2024/01/13 07:40:28;;;;;;;42.97;20.52;;;;;;;;;;4962747;28;20506;-67
2024/01/13 07:42:55;;;;;;;46.58;20.75;;;;;;;;;;4968435;28;20063;-67
2024/01/13 07:45:22;;;;;;;45.25;22.25;;;;;;;;;;4971622;28;20063;-68
2024/01/13 07:47:50;;;;;;;44.70;22.60;;;;;;;;;;4967027;28;20053;-68
2024/01/13 07:50:18;;;;;;;56.35;24.05;;;;;;;;;;4969686;28;20117;-68
2024/01/13 07:52:46;;;;;;;51.13;23.83;;;;;;;;;;4982937;28;20077;-69
2024/01/13 07:55:13;;;;;;;51.75;25.98;;;;;;;;;;4966106;28;20050;-68
2024/01/13 07:57:40;;;;;;;52.20;24.90;;;;;;;;;;4966564;28;20047;-68
2024/01/13 08:00:09;;;;;;;56.47;26.80;;;;;;;;;;4966790;28;20089;-68
2024/01/13 08:02:36;;;;;;;58.58;28.50;;;;;;;;;;4962849;28;20050;-66
2024/01/13 08:05:03;;;;;;;55.00;27.20;;;;;;;;;;4968115;28;20054;-69
2024/01/13 08:07:32;;;;;;;61.60;29.88;;;;;;;;;;4967278;28;20494;-68
2024/01/13 08:09:59;;;;;;;52.95;29.70;;;;;;;;;;4967546;28;20065;-69
2024/01/13 08:12:27;;;;;;;56.90;27.48;;;;;;;;;;4968428;28;20051;-67
2024/01/13 08:14:55;;;;;;;62.58;29.30;;;;;;;;;;4965620;28;20065;-68
2024/01/13 08:17:22;;;;;;;56.92;29.35;;;;;;;;;;4967186;28;20383;-69
2024/01/13 08:19:49;;;;;;;63.88;29.27;;;;;;;;;;4966188;28;20054;-68
2024/01/13 08:22:17;;;;;;;60.15;28.55;;;;;;;;;;4967066;28;20054;-68
2024/01/13 08:24:45;;;;;;;50.40;26.42;;;;;;;;;;4967806;28;20061;-68
2024/01/13 08:27:13;;;;;;;53.80;26.65;;;;;;;;;;4970099;28;20046;-68
2024/01/13 08:29:40;;;;;;;57.15;27.58;;;;;;;;;;4964366;28;20102;-67
2024/01/13 08:32:07;;;;;;;55.97;26.15;;;;;;;;;;4967649;28;20061;-69
2024/01/13 08:34:34;;;;;;;49.50;26.88;;;;;;;;;;4966303;28;20491;-68
2024/01/13 08:37:02;;;;;;;49.95;24.48;;;;;;;;;;4967427;28;20062;-67
2024/01/13 08:39:29;;;;;;;44.78;24.98;;;;;;;;;;4968324;28;20121;-68
2024/01/13 08:41:57;;;;;;;49.90;23.63;;;;;;;;;;4968194;28;20058;-68
2024/01/13 08:44:25;;;;;;;45.22;22.83;;;;;;;;;;4967117;28;20042;-67
2024/01/13 08:46:52;;;;;;;40.95;20.23;;;;;;;;;;4968071;28;20063;-67
2024/01/13 08:49:19;;;;;;;42.80;20.58;;;;;;;;;;4966892;28;20050;-69
2024/01/13 08:51:47;;;;;;;39.35;18.50;;;;;;;;;;4969258;28;20135;-67
2024/01/13 08:54:14;;;;;;;42.40;17.92;;;;;;;;;;4970702;28;20446;-68
2024/01/13 08:56:41;;;;;;;37.08;16.98;;;;;;;;;;4966397;28;20051;-68
2024/01/13 08:59:10;;;;;;;34.17;16.40;;;;;;;;;;4966011;28;20072;-68
2024/01/13 09:01:37;;;;;;;31.02;15.38;;;;;;;;;;4963394;28;20047;-70
2024/01/13 09:04:05;;;;;;;38.80;14.85;;;;;;;;;;4964239;28;20057;-68
2024/01/13 09:06:33;;;;;;;28.85;13.95;;;;;;;;;;4968595;28;20433;-68
2024/01/13 09:09:01;;;;;;;32.00;13.50;;;;;;;;;;4965416;28;20058;-67
2024/01/13 09:11:28;;;;;;;33.47;13.40;;;;;;;;;;4969349;28;20055;-66
2024/01/13 09:13:55;;;;;;;27.85;13.68;;;;;;;;;;4967799;28;20413;-67
2024/01/13 09:16:24;;;;;;;36.42;12.85;;;;;;;;;;4969056;28;20051;-70
2024/01/13 09:18:51;;;;;;;26.85;12.13;;;;;;;;;;4962206;28;20043;-72
2024/01/13 09:21:18;;;;;;;28.65;11.30;;;;;;;;;;4967771;28;20046;-69
2024/01/13 09:23:46;;;;;;;30.05;10.70;;;;;;;;;;4967545;28;20154;-69
2024/01/13 09:26:14;;;;;;;23.80;9.23;;;;;;;;;;4967820;28;20059;-68
2024/01/13 09:28:41;;;;;;;18.75;7.55;;;;;;;;;;4960462;28;20054;-68
2024/01/13 09:31:08;;;;;;;18.00;6.60;;;;;;;;;;4967057;28;20055;-69
2024/01/13 09:33:37;;;;;;;16.92;7.10;;;;;;;;;;4967985;28;20051;-69
2024/01/13 09:36:04;;;;;;;19.63;6.45;;;;;;;;;;4968182;28;20386;-68
2024/01/13 09:38:32;;;;;;;15.60;5.40;;;;;;;;;;4967236;28;20078;-68
2024/01/13 09:40:59;;;;;;;14.35;4.45;;;;;;;;;;4966599;28;20059;-68
2024/01/13 09:43:28;;;;;;;14.88;4.85;;;;;;;;;;4969413;28;20058;-69
2024/01/13 09:45:56;;;;;;;17.80;4.45;;;;;;;;;;4967713;28;20057;-68
2024/01/13 09:48:23;;;;;;;14.77;4.25;;;;;;;;;;4969233;28;20160;-68
2024/01/13 09:50:53;;;;;;;10.18;3.88;;;;;;;;;;4965917;28;20051;-68
2024/01/13 09:53:25;;;;;;;12.25;4.15;;;;;;;;;;4966651;28;20063;-69
2024/01/13 09:55:55;;;;;;;19.85;4.13;;;;;;;;;;4965690;28;20062;-68
2024/01/13 09:58:23;;;;;;;14.93;4.50;;;;;;;;;;4969559;28;20407;-68
2024/01/13 10:00:50;;;;;;;9.13;3.90;;;;;;;;;;4968395;28;20062;-68
2024/01/13 10:03:17;;;;;;;16.30;4.13;;;;;;;;;;4964376;28;20126;-68
2024/01/13 10:05:44;;;;;;;19.98;3.85;;;;;;;;;;4971159;28;20626;-68
2024/01/13 10:08:13;;;;;;;21.02;3.58;;;;;;;;;;4972374;28;20050;-67
2024/01/13 10:10:42;;;;;;;11.45;2.53;;;;;;;;;;4971791;28;20047;-68
2024/01/13 10:13:09;;;;;;;10.60;2.70;;;;;;;;;;4972397;28;20077;-68
2024/01/13 10:15:36;;;;;;;13.57;1.90;;;;;;;;;;4970605;28;20406;-68
2024/01/13 10:18:04;;;;;;;6.10;2.38;;;;;;;;;;4969322;28;20408;-68
2024/01/13 10:20:31;;;;;;;9.50;1.35;;;;;;;;;;4968903;28;20077;-68
2024/01/13 10:22:58;;;;;;;4.38;0.80;;;;;;;;;;4968791;28;20051;-68
2024/01/13 10:25:27;;;;;;;6.07;1.08;;;;;;;;;;4971337;28;20047;-68
2024/01/13 10:27:54;;;;;;;5.32;0.80;;;;;;;;;;4966541;28;20059;-68
2024/01/13 10:30:23;;;;;;;9.40;1.10;;;;;;;;;;4968841;28;20082;-68
2024/01/13 10:32:50;;;;;;;7.18;1.00;;;;;;;;;;4966961;28;20062;-69
2024/01/13 10:35:18;;;;;;;5.68;1.00;;;;;;;;;;4971309;28;20491;-68
2024/01/13 10:37:46;;;;;;;9.32;1.13;;;;;;;;;;4969406;28;20054;-68
2024/01/13 10:40:13;;;;;;;3.97;1.00;;;;;;;;;;4970779;28;20659;-68
2024/01/13 10:42:46;;;;;;;7.55;1.85;;;;;;;;;;4969689;28;20043;-69
2024/01/13 10:45:16;;;;;;;12.15;1.38;;;;;;;;;;4969448;28;20450;-68
2024/01/13 10:47:45;;;;;;;14.18;1.50;;;;;;;;;;4969306;28;20055;-71
2024/01/13 10:50:12;;;;;;;6.70;1.00;;;;;;;;;;4962990;28;20518;-69
2024/01/13 10:52:48;;;;;;;7.30;1.20;;;;;;;;;;4967050;28;20055;-68
2024/01/13 10:55:16;;;;;;;10.45;1.25;;;;;;;;;;4968787;28;20505;-68
2024/01/13 10:57:45;;;;;;;13.65;1.73;;;;;;;;;;4970439;28;20051;-71
2024/01/13 11:00:13;;;;;;;6.72;1.50;;;;;;;;;;4970426;28;20391;-68
2024/01/13 11:02:41;;;;;;;6.13;1.10;;;;;;;;;;4968450;28;20057;-69
2024/01/13 11:05:08;;;;;;;9.88;1.85;;;;;;;;;;4971453;28;20054;-68
2024/01/13 11:07:36;;;;;;;8.07;1.60;;;;;;;;;;4968732;28;20402;-68
2024/01/13 11:10:06;;;;;;;8.20;1.27;;;;;;;;;;4961832;28;20181;-68
2024/01/13 11:12:35;;;;;;;8.40;1.30;;;;;;;;;;4962663;28;20387;-69
2024/01/13 11:15:09;;;;;;;8.65;1.40;;;;;;;;;;4958502;28;20059;-70
2024/01/13 11:17:36;;;;;;;10.63;1.20;;;;;;;;;;4958792;28;20050;-68
2024/01/13 11:20:04;;;;;;;8.85;1.30;;;;;;;;;;4957874;28;20517;-68
2024/01/13 11:22:32;;;;;;;10.38;1.65;;;;;;;;;;4959081;28;20126;-68
2024/01/13 11:25:00;;;;;;;8.65;1.08;;;;;;;;;;4966472;28;20109;-68
2024/01/13 11:27:27;;;;;;;6.93;0.85;;;;;;;;;;4966705;28;20071;-68
2024/01/13 11:29:55;;;;;;;11.27;1.40;;;;;;;;;;4969454;28;20521;-68
2024/01/13 11:32:26;;;;;;;9.75;1.38;;;;;;;;;;4970117;28;20097;-68
2024/01/13 11:34:55;;;;;;;10.23;1.10;;;;;;;;;;4970164;28;20054;-68
2024/01/13 11:37:23;;;;;;;13.23;1.25;;;;;;;;;;4966411;28;20043;-69
2024/01/13 11:39:52;;;;;;;8.48;1.30;;;;;;;;;;4968503;28;20058;-68
2024/01/13 11:42:21;;;;;;;13.95;2.35;;;;;;;;;;4972163;28;20585;-68
2024/01/13 11:44:49;;;;;;;4.22;0.80;;;;;;;;;;4967691;28;20557;-69
2024/01/13 11:47:27;;;;;;;10.93;1.10;;;;;;;;;;4969928;28;20051;-68
2024/01/13 11:49:56;;;;;;;12.93;1.30;;;;;;;;;;4968373;28;20058;-68
2024/01/13 11:52:31;;;;;;;7.40;1.00;;;;;;;;;;4969718;28;20070;-68
2024/01/13 11:54:59;;;;;;;8.95;1.08;;;;;;;;;;4968200;28;20126;-67
2024/01/13 11:57:26;;;;;;;11.60;1.42;;;;;;;;;;4964149;28;20438;-67
2024/01/13 11:59:53;;;;;;;10.68;1.60;;;;;;;;;;4967993;28;20076;-66
2024/01/13 12:02:21;;;;;;;7.72;1.25;;;;;;;;;;4965757;28;20513;-67
2024/01/13 12:04:49;;;;;;;11.00;1.17;;;;;;;;;;4969474;28;20057;-67
2024/01/13 12:07:18;;;;;;;6.55;1.10;;;;;;;;;;4969253;28;20399;-68
2024/01/13 12:09:45;;;;;;;11.57;0.80;;;;;;;;;;4968225;28;20093;-67
2024/01/13 12:12:13;;;;;;;11.38;1.08;;;;;;;;;;4969275;28;20051;-67
2024/01/13 12:14:40;;;;;;;6.00;1.05;;;;;;;;;;4966222;28;20047;-67
2024/01/13 12:17:08;;;;;;;5.97;1.05;;;;;;;;;;4963828;28;20070;-69
2024/01/13 12:19:37;;;;;;;6.95;1.13;;;;;;;;;;4964149;28;20058;-68
2024/01/13 12:22:04;;;;;;;5.82;0.85;;;;;;;;;;4966333;28;20114;-67
2024/01/13 12:24:33;;;;;;;7.55;0.80;;;;;;;;;;4967371;28;20042;-69
2024/01/13 12:27:01;;;;;;;12.13;0.90;;;;;;;;;;4962866;28;20458;-67
2024/01/13 12:29:30;;;;;;;4.45;0.57;;;;;;;;;;4967454;28;20058;-68
2024/01/13 12:31:57;;;;;;;5.18;0.73;;;;;;;;;;4969133;28;20050;-66
2024/01/13 12:34:25;;;;;;;7.95;0.50;;;;;;;;;;4966680;28;20059;-67
2024/01/13 12:36:53;;;;;;;6.70;0.70;;;;;;;;;;4961391;28;20063;-66
2024/01/13 12:39:20;;;;;;;6.95;0.88;;;;;;;;;;4972855;28;20138;-67
2024/01/13 12:41:49;;;;;;;5.35;1.05;;;;;;;;;;4962048;28;20103;-68
2024/01/13 12:44:17;;;;;;;7.97;0.82;;;;;;;;;;4966246;28;20503;-68
2024/01/13 12:46:44;;;;;;;6.25;0.80;;;;;;;;;;4968635;28;20054;-68
2024/01/13 12:49:16;;;;;;;16.52;0.95;;;;;;;;;;4965934;28;20051;-67
2024/01/13 12:51:43;;;;;;;16.13;1.42;;;;;;;;;;4969440;28;20055;-72
2024/01/13 12:54:11;;;;;;;12.27;1.27;;;;;;;;;;4967460;28;20109;-67
2024/01/13 12:56:39;;;;;;;14.48;1.35;;;;;;;;;;4969296;28;20179;-68
2024/01/13 12:59:08;;;;;;;22.60;1.48;;;;;;;;;;4968391;28;20050;-68
2024/01/13 13:01:35;;;;;;;16.15;1.52;;;;;;;;;;4969349;28;20053;-70
2024/01/13 13:04:02;;;;;;;7.47;1.50;;;;;;;;;;4965327;28;20450;-67
2024/01/13 13:06:30;;;;;;;11.88;1.70;;;;;;;;;;4964907;28;20054;-67
2024/01/13 13:08:59;;;;;;;20.67;2.00;;;;;;;;;;4963508;28;21850;-67
2024/01/13 13:11:27;;;;;;;15.57;1.65;;;;;;;;;;4967374;28;20391;-67
2024/01/13 13:13:54;;;;;;;22.08;1.90;;;;;;;;;;4961125;28;20051;-66
2024/01/13 13:16:23;;;;;;;17.65;1.48;;;;;;;;;;4967979;28;20055;-67
2024/01/13 13:18:50;;;;;;;10.82;1.35;;;;;;;;;;4969624;28;20043;-67
2024/01/13 13:21:18;;;;;;;23.02;2.38;;;;;;;;;;4968468;28;20049;-67
2024/01/13 13:23:46;;;;;;;16.55;2.15;;;;;;;;;;4969005;28;20130;-67
2024/01/13 13:26:13;;;;;;;15.50;1.63;;;;;;;;;;4968450;28;20068;-67
2024/01/13 13:28:41;;;;;;;16.85;1.63;;;;;;;;;;4967457;28;20047;-67
2024/01/13 13:31:09;;;;;;;15.38;1.58;;;;;;;;;;4969030;28;20058;-68
2024/01/13 13:33:37;;;;;;;17.75;1.80;;;;;;;;;;4972886;28;20054;-67
2024/01/13 13:36:05;;;;;;;14.57;1.65;;;;;;;;;;4975501;28;20537;-67
2024/01/13 13:38:32;;;;;;;20.05;1.80;;;;;;;;;;4971291;28;20058;-68
2024/01/13 13:40:59;;;;;;;14.65;1.55;;;;;;;;;;4968845;28;20423;-68
2024/01/13 13:43:29;;;;;;;12.50;1.77;;;;;;;;;;4971304;28;20059;-67
2024/01/13 13:45:56;;;;;;;15.23;1.73;;;;;;;;;;4971751;28;20061;-68
2024/01/13 13:48:26;;;;;;;16.00;2.10;;;;;;;;;;4971136;28;20113;-67
2024/01/13 13:50:55;;;;;;;19.85;1.40;;;;;;;;;;4971683;28;20090;-67
2024/01/13 13:53:22;;;;;;;15.68;2.05;;;;;;;;;;4972682;28;20509;-67
2024/01/13 13:55:50;;;;;;;15.48;1.30;;;;;;;;;;4973546;28;20055;-68
2024/01/13 13:58:17;;;;;;;11.88;1.42;;;;;;;;;;4974198;28;20042;-69
2024/01/13 14:00:45;;;;;;;15.18;1.20;;;;;;;;;;4972847;28;20054;-68
2024/01/13 14:03:14;;;;;;;22.00;2.35;;;;;;;;;;4973892;28;20098;-67
2024/01/13 14:05:42;;;;;;;16.00;1.60;;;;;;;;;;4974802;28;20054;-67
2024/01/13 14:08:12;;;;;;;18.50;2.05;;;;;;;;;;4970344;28;20046;-67
2024/01/13 14:10:39;;;;;;;12.50;1.45;;;;;;;;;;4974402;28;20081;-68
2024/01/13 14:13:07;;;;;;;19.52;1.80;;;;;;;;;;4972178;28;20055;-67
2024/01/13 14:15:34;;;;;;;16.42;2.13;;;;;;;;;;4971988;28;20062;-68
2024/01/13 14:18:02;;;;;;;12.20;1.55;;;;;;;;;;4973134;28;20410;-67
2024/01/13 14:20:31;;;;;;;18.88;1.63;;;;;;;;;;4971040;28;20058;-69
2024/01/13 14:22:58;;;;;;;23.45;1.92;;;;;;;;;;4971497;28;20046;-68
2024/01/13 14:25:27;;;;;;;18.73;2.20;;;;;;;;;;4970093;28;20058;-67
2024/01/13 14:27:54;;;;;;;14.43;1.73;;;;;;;;;;4971394;28;20043;-67
2024/01/13 14:30:21;;;;;;;20.10;1.60;;;;;;;;;;4970978;28;20039;-67
2024/01/13 14:32:49;;;;;;;13.32;1.50;;;;;;;;;;4967048;28;20050;-67
2024/01/13 14:35:16;;;;;;;11.95;2.10;;;;;;;;;;4971192;28;20055;-69